WetterOnline ( https://www.wetteronline.de )

Wetter aktuell Remptendorf

Aktuelles Wetter: Schleiz (502m)

6-stündlich | Neueste Meldungen
Ortszeit Temperatur Wetter
Sa, 02.03. 19:00 7.4° C leicht bewölkt
Sa, 02.03. 13:00 10.3° C wolkenlos
Sa, 02.03. 7:00 5.2° C Regen
Sa, 02.03. 1:00 4.5° C bedeckt
Fr, 01.03. 19:00 6.2° C bedeckt
Fr, 01.03. 13:00 8.0° C wolkig
Fr, 01.03. 7:00 3.9° C bewölkt
Fr, 01.03. 1:00 4.2° C wolkig
Ortszeit Temperatur Wetter
Sa, 02.03. 19:30 6.8° C leicht bewölkt
Sa, 02.03. 19:20 6.8° C leicht bewölkt
Sa, 02.03. 19:10 7.0° C wolkig
Sa, 02.03. 19:00 7.4° C leicht bewölkt
Sa, 02.03. 18:50 7.4° C leicht bewölkt
Sa, 02.03. 18:40 7.5° C leicht bewölkt
Sa, 02.03. 18:30 8.1° C Dunst
Sa, 02.03. 18:00 8.8° C Dunst
Sa, 02.03. 17:30 9.7° C Dunst
Sa, 02.03. 17:00 10.3° C wolkig
Sa, 02.03. 16:30 10.6° C wolkig
Ortszeit Relative Feuchte Sichtweite
Sa, 02.03. 19:00 81% 1.8 km
Sa, 02.03. 13:00 73% 35 km
Sa, 02.03. 7:00 97% 6 km
Sa, 02.03. 1:00 93% 10 km
Fr, 01.03. 19:00 84% 30 km
Fr, 01.03. 13:00 76% 16 km
Fr, 01.03. 7:00 98% 7 km
Fr, 01.03. 1:00 97% 7 km
Ortszeit Relative Feuchte Sichtweite
Sa, 02.03. 19:30 84% 30 km
Sa, 02.03. 19:20 84% -
Sa, 02.03. 19:10 83% -
Sa, 02.03. 19:00 81% 1.8 km
Sa, 02.03. 18:50 81% -
Sa, 02.03. 18:40 81% -
Sa, 02.03. 18:30 78% 2.3 km
Sa, 02.03. 18:00 74% 2.2 km
Sa, 02.03. 17:30 71% 1.6 km
Sa, 02.03. 17:00 68% 40 km
Sa, 02.03. 16:30 66% 50 km
Ortszeit Niederschlagsmenge Niederschlagsart
Sa, 02.03. 19:00 0.1 l/m2 in 12 Std. -
Sa, 02.03. 13:00 0.1 l/m2 in 6 Std. Regen
Sa, 02.03. 7:00 0.9 l/m2 in 12 Std. Regen
Sa, 02.03. 1:00 0.0 l/m2 in 6 Std. -
Fr, 01.03. 19:00 0.0 l/m2 in 12 Std. -
Fr, 01.03. 13:00 0.0 l/m2 in 6 Std. -
Fr, 01.03. 7:00 0.0 l/m2 in 12 Std. -
Fr, 01.03. 1:00 0.0 l/m2 in 6 Std. -
Ortszeit Niederschlagsmenge Niederschlagsart
Sa, 02.03. 19:30 0.0 l/m2 in 30 Min -
Sa, 02.03. 19:20 keine Meldung -
Sa, 02.03. 19:10 keine Meldung -
Sa, 02.03. 19:00 0.0 l/m2 in 1 Std. -
Sa, 02.03. 18:50 keine Meldung -
Sa, 02.03. 18:40 keine Meldung -
Sa, 02.03. 18:30 0.0 l/m2 in 30 Min -
Sa, 02.03. 18:00 0.0 l/m2 in 1 Std. -
Sa, 02.03. 17:30 0.0 l/m2 in 30 Min -
Sa, 02.03. 17:00 0.0 l/m2 in 1 Std. -
Sa, 02.03. 16:30 0.0 l/m2 in 30 Min -
Ortszeit Stärke Spitze Richtung
km/h Bft. km/h Grad Sektor
Sa, 02.03. 19:00 15 3 28 140° SO
Sa, 02.03. 13:00 15 3 28 170° S
Sa, 02.03. 7:00 13 3 22 180° S
Sa, 02.03. 1:00 9 2 15 170° S
Fr, 01.03. 19:00 7 2 14 180° S
Fr, 01.03. 13:00 6 1 30 200° S
Fr, 01.03. 7:00 13 3 22 180° S
Fr, 01.03. 1:00 7 2 35 160° S
Ortszeit Stärke Spitze Richtung
km/h Bft. km/h Grad Sektor
Sa, 02.03. 19:30 20 4 28 140° SO
Sa, 02.03. 19:20 20 4 - 140° SO
Sa, 02.03. 19:10 18 3 - 140° SO
Sa, 02.03. 19:00 15 3 24 140° SO
Sa, 02.03. 18:50 15 3 - 140° SO
Sa, 02.03. 18:40 14 3 - 140° SO
Sa, 02.03. 18:30 14 3 25 140° SO
Sa, 02.03. 18:00 19 3 24 140° SO
Sa, 02.03. 17:30 13 3 24 140° SO
Sa, 02.03. 17:00 11 2 25 160° S
Sa, 02.03. 16:30 14 3 22 130° SO
Ortszeit Untergrenze Bedeckung Gattung
total tief tief mittel hoch
Sa, 02.03. 19:00 7500 m 6/8 0/8 - - -
Sa, 02.03. 13:00 - 0/8 0/8 - - -
Sa, 02.03. 7:00 1260 m 7/8 7/8 - - -
Sa, 02.03. 1:00 3600 m 8/8 8/8 - - -
Fr, 01.03. 19:00 5100 m 8/8 8/8 - - -
Fr, 01.03. 13:00 3600 m 7/8 5/8 - - -
Fr, 01.03. 7:00 90 m 7/8 7/8 - - -
Fr, 01.03. 1:00 180 m 7/8 3/8 - - -
Ortszeit Bedeckungsgrad in Achtel und Wolkenuntergrenze
Sa, 02.03. 19:30 3(7500m)
Sa, 02.03. 19:20 3(7500m)
Sa, 02.03. 19:10 5
Sa, 02.03. 19:00 6(7500m)
Sa, 02.03. 18:50 6(7500m)
Sa, 02.03. 18:40 2
Sa, 02.03. 18:30 4(7800m)
Sa, 02.03. 18:00 8(7800m)
Sa, 02.03. 17:30 8(7800m)
Sa, 02.03. 17:00 8(7800m)
Sa, 02.03. 16:30 7(7800m) 8(8700m)
Ortszeit Luftdruck NN (hPa) Tendenz (hPa in 3 Std.)
Sa, 02.03. 19:00 1006 + 0,1
Sa, 02.03. 13:00 1006 - 0,2
Sa, 02.03. 7:00 1007 + 0,3
Sa, 02.03. 1:00 1007 - 0,8
Fr, 01.03. 19:00 1008 + 0,2
Fr, 01.03. 13:00 1008 - 0,2
Fr, 01.03. 7:00 1008 + 0,9
Fr, 01.03. 1:00 1008 - 1,4
Ortszeit Luftdruck NN (hPa) Tendenz (hPa in 3 Std.)
Sa, 02.03. 19:30 1007 + 0,3
Sa, 02.03. 19:20 1007 keine Meldung
Sa, 02.03. 19:10 1006 keine Meldung
Sa, 02.03. 19:00 1006 + 0,1
Sa, 02.03. 18:50 1006 keine Meldung
Sa, 02.03. 18:40 1006 keine Meldung
Sa, 02.03. 18:30 1006 - 0,3
Sa, 02.03. 18:00 1006 - 0,3
Sa, 02.03. 17:30 1005 - 0,5
Sa, 02.03. 17:00 1005 - 0,7
Sa, 02.03. 16:30 1005 - 0,6
Ortszeit Schneehöhe (cm)
Sa, 02.03. 19:00 0
Sa, 02.03. 13:00 0
Sa, 02.03. 7:00 0
Sa, 02.03. 1:00 0
Fr, 01.03. 19:00 0
Fr, 01.03. 13:00 0
Fr, 01.03. 7:00 0
Fr, 01.03. 1:00 0
Ortszeit Schneehöhe (cm)
Sa, 02.03. 19:30 0
Sa, 02.03. 19:20 0
Sa, 02.03. 19:10 -
Sa, 02.03. 19:00 0
Sa, 02.03. 18:50 0
Sa, 02.03. 18:40 -
Sa, 02.03. 18:30 0
Sa, 02.03. 18:00 0
Sa, 02.03. 17:30 0
Sa, 02.03. 17:00 0
Sa, 02.03. 16:30 0
Link zu dieser Seite / Seite empfehlen

Das Wetter in ...